Time;durP1;ratioP1;P1;durP2;ratioP2;P2;SDS_P1;SDS_P2;PMS_P1;PMS_P2;Temp;Humidity;BMP_temperature;BMP_pressure;BME280_temperature;BME280_humidity;BME280_pressure;Samples;Min_cycle;Max_cycle;Signal;HPM_P1;HPM_P2
2020/12/28 00:01:51;;;;;;;6.76;6.01;;;5.40;99.90;;;10.21;92.21;97529.95;1707924;74;24885;-77
2020/12/28 00:04:07;;;;;;;6.17;5.36;;;5.40;99.90;;;10.31;92.22;97531.72;1700900;74;24881;-79
2020/12/28 00:06:25;;;;;;;6.70;6.10;;;5.40;99.90;;;10.18;92.68;97537.05;1686070;75;24499;-77
2020/12/28 00:08:43;;;;;;;7.45;6.74;;;5.50;99.90;;;10.32;92.84;97543.35;1702364;74;24480;-76
2020/12/28 00:10:59;;;;;;;7.25;6.43;;;5.50;99.90;;;10.43;93.02;97533.35;1699802;74;24456;-77
2020/12/28 00:13:16;;;;;;;7.73;6.83;;;5.50;99.90;;;10.31;93.06;97533.88;1706829;74;24424;-76
2020/12/28 00:15:32;;;;;;;8.04;6.33;;;5.50;99.90;;;10.26;92.70;97540.16;1704003;74;24558;-76
2020/12/28 00:17:54;;;;;;;7.29;6.59;;;5.50;99.90;;;10.30;92.96;97537.84;1701759;74;25075;-76
2020/12/28 00:20:12;;;;;;;6.50;5.47;;;5.50;99.90;;;10.40;92.82;97542.58;1705029;74;24437;-77
2020/12/28 00:22:28;;;;;;;7.16;6.37;;;5.50;99.90;;;10.21;93.22;97547.33;1702292;74;24595;-76
2020/12/28 00:24:44;;;;;;;6.33;5.68;;;5.60;99.90;;;10.23;93.40;97551.54;1705988;74;24968;-77
2020/12/28 00:27:00;;;;;;;6.59;5.81;;;5.60;99.90;;;10.40;93.16;97550.86;1706537;74;24437;-77
2020/12/28 00:29:19;;;;;;;8.86;6.48;;;5.60;99.90;;;10.37;92.58;97552.27;1704263;74;24470;-77
2020/12/28 00:31:36;;;;;;;7.74;6.95;;;5.60;99.90;;;10.36;92.60;97546.68;1703967;74;24411;-78
2020/12/28 00:33:52;;;;;;;7.34;6.64;;;5.60;99.90;;;10.49;92.19;97548.73;1698386;74;24473;-77
2020/12/28 00:36:15;;;;;;;5.99;5.43;;;5.60;99.90;;;10.31;93.00;97550.77;1698871;74;24480;-76
2020/12/28 00:38:33;;;;;;;6.17;5.54;;;5.60;99.90;;;10.32;92.91;97554.23;1703160;74;24858;-76
2020/12/28 00:40:49;;;;;;;7.45;6.68;;;5.60;99.90;;;10.36;92.96;97555.78;1701788;74;24445;-77
2020/12/28 00:43:05;;;;;;;6.48;5.84;;;5.60;99.90;;;10.58;92.45;97556.14;1702494;74;24961;-78
2020/12/28 00:45:22;;;;;;;7.25;6.51;;;5.60;99.90;;;10.37;92.17;97553.12;1703973;74;24632;-77
2020/12/28 00:47:40;;;;;;;7.15;5.99;;;5.70;99.90;;;10.53;92.13;97553.32;1680849;74;24507;-77
2020/12/28 00:49:56;;;;;;;5.29;4.80;;;5.70;99.90;;;10.47;92.40;97554.88;1699104;74;24886;-76
2020/12/28 00:52:12;;;;;;;5.97;5.34;;;5.70;99.90;;;10.35;92.12;97550.20;1706204;74;24441;-76
2020/12/28 00:54:28;;;;;;;5.58;5.01;;;5.70;99.90;;;10.18;93.13;97550.88;1699539;74;24492;-78
2020/12/28 00:56:47;;;;;;;6.11;5.59;;;5.70;99.90;;;10.19;93.13;97538.73;1708294;74;24896;-76
2020/12/28 00:59:03;;;;;;;6.82;5.09;;;5.70;99.90;;;10.44;92.92;97540.70;1661107;76;24507;-79
2020/12/28 01:01:24;;;;;;;6.11;5.36;;;5.70;99.90;;;10.37;92.36;97545.76;1660752;76;24531;-78
2020/12/28 01:03:41;;;;;;;4.90;4.50;;;5.70;99.90;;;10.34;92.03;97538.94;1667032;76;24452;-77
2020/12/28 01:06:07;;;;;;;4.81;4.34;;;5.70;99.90;;;10.29;92.72;97549.16;1671518;75;24856;-77
2020/12/28 01:08:24;;;;;;;4.11;3.80;;;5.70;99.90;;;10.37;91.76;97540.56;1665647;76;24514;-77
2020/12/28 01:10:45;;;;;;;5.28;4.82;;;5.60;99.90;;;10.22;91.93;97541.20;1669500;76;24587;-75
2020/12/28 01:13:06;;;;;;;7.28;5.26;;;5.60;99.90;;;10.32;91.84;97535.55;1668959;76;24472;-77
2020/12/28 01:15:25;;;;;;;4.84;4.20;;;5.60;99.90;;;10.32;91.62;97543.35;1663495;76;24992;-77
2020/12/28 01:17:42;;;;;;;5.36;4.87;;;5.50;99.90;;;10.28;91.30;97544.41;1664287;76;24537;-77
2020/12/28 01:20:15;;;;;;;5.42;4.77;;;5.60;99.90;;;10.47;91.15;97549.69;1662682;76;24559;-78
2020/12/28 01:22:34;;;;;;;5.42;4.97;;;5.60;99.90;;;10.58;91.09;97542.27;1663250;76;24566;-76
2020/12/28 01:24:51;;;;;;;5.17;4.77;;;5.60;99.90;;;10.80;91.28;97545.66;1659841;76;24439;-75
2020/12/28 01:27:09;;;;;;;5.30;4.82;;;5.60;99.90;;;10.95;90.43;97558.47;1662748;76;24551;-77
2020/12/28 01:29:26;;;;;;;4.77;4.37;;;5.60;99.90;;;10.52;89.94;97564.20;1665345;76;24463;-76
2020/12/28 01:31:42;;;;;;;4.90;4.50;;;5.60;99.90;;;10.42;90.97;97575.03;1664920;76;24460;-77
2020/12/28 01:34:06;;;;;;;5.47;4.97;;;5.70;99.90;;;10.48;91.06;97582.58;1664020;75;24847;-77
2020/12/28 01:36:29;;;;;;;5.13;4.70;;;5.70;99.90;;;10.50;90.90;97580.33;1659254;76;24524;-75
2020/12/28 01:38:46;;;;;;;4.97;4.56;;;5.70;99.90;;;10.47;91.30;97581.75;1665980;76;24482;-76
2020/12/28 01:41:07;;;;;;;5.45;4.96;;;5.70;99.90;;;10.63;91.42;97584.11;1636719;76;24573;-77
2020/12/28 01:43:25;;;;;;;3.91;3.44;;;5.70;99.90;;;10.59;90.83;97581.71;1659620;76;24745;-77
2020/12/28 01:45:41;;;;;;;5.10;4.64;;;5.70;99.90;;;10.34;91.36;97585.75;1661114;76;24522;-76
2020/12/28 01:48:00;;;;;;;5.39;4.88;;;5.70;99.90;;;10.47;91.08;97580.45;1664595;76;24386;-77
2020/12/28 01:50:19;;;;;;;5.06;4.54;;;5.70;99.90;;;10.57;91.32;97568.73;1663175;76;24370;-77
2020/12/28 01:52:36;;;;;;;5.20;4.60;;;5.60;99.90;;;10.47;90.88;97570.48;1664724;76;24477;-77
2020/12/28 01:54:56;;;;;;;5.13;4.65;;;5.60;99.90;;;10.39;90.83;97573.86;1668090;76;24446;-76
2020/12/28 01:57:15;;;;;;;4.74;4.34;;;5.60;99.90;;;10.44;91.13;97575.83;1663468;76;24397;-76
2020/12/28 01:59:34;;;;;;;5.14;4.67;;;5.60;99.90;;;10.49;90.88;97579.94;1693695;74;24433;-77
2020/12/28 02:01:56;;;;;;;5.38;4.80;;;5.60;99.90;;;10.67;90.54;97585.66;1701029;74;24536;-77
2020/12/28 02:04:14;;;;;;;4.96;4.52;;;5.60;99.90;;;10.76;90.25;97580.98;1696204;74;24440;-76
2020/12/28 02:06:32;;;;;;;5.20;4.80;;;5.60;99.90;;;10.62;90.34;97590.69;1696728;74;24519;-76
2020/12/28 02:08:49;;;;;;;4.73;4.27;;;5.60;99.90;;;10.51;90.37;97591.58;1698205;74;24598;-76
2020/12/28 02:11:06;;;;;;;4.14;3.74;;;5.60;99.90;;;10.48;90.31;97589.08;1699114;74;24522;-75
2020/12/28 02:13:23;;;;;;;4.84;4.44;;;5.60;99.90;;;10.23;91.29;97584.04;1698744;74;24445;-77
2020/12/28 02:15:41;;;;;;;4.75;4.35;;;5.60;99.90;;;10.60;91.11;97567.78;1671691;74;24382;-77
2020/12/28 02:18:05;;;;;;;6.15;5.07;;;5.60;99.90;;;10.45;90.11;97567.09;1695637;74;24426;-75
2020/12/28 02:20:23;;;;;;;5.61;5.02;;;5.60;99.90;;;10.46;90.42;97562.31;1692901;74;24373;-75
2020/12/28 02:22:39;;;;;;;5.53;5.00;;;5.60;99.90;;;10.28;90.98;97565.65;1705927;74;25043;-75
2020/12/28 02:24:57;;;;;;;5.00;4.54;;;5.60;99.90;;;10.41;90.87;97559.91;1695865;74;24559;-77
2020/12/28 02:27:15;;;;;;;5.09;4.62;;;5.60;99.90;;;10.41;91.03;97565.10;1699806;74;24827;-76
2020/12/28 02:29:31;;;;;;;5.93;4.88;;;5.60;99.90;;;10.45;90.76;97569.25;1707501;74;24466;-76
2020/12/28 02:31:49;;;;;;;5.13;4.60;;;5.60;99.90;;;10.52;91.14;97579.81;1698376;74;24516;-76
2020/12/28 02:34:11;;;;;;;4.90;4.49;;;5.60;99.90;;;10.55;91.52;97579.68;1674457;74;24405;-75
2020/12/28 02:36:28;;;;;;;5.29;4.44;;;5.70;99.90;;;10.47;91.17;97580.45;1700451;74;24973;-76
2020/12/28 02:38:45;;;;;;;6.13;4.77;;;5.60;99.90;;;10.42;90.48;97586.29;1704844;74;24624;-76
2020/12/28 02:41:02;;;;;;;4.51;3.95;;;5.60;99.90;;;10.38;90.89;97584.73;1698138;74;24522;-77
2020/12/28 02:43:20;;;;;;;5.09;4.45;;;5.60;99.90;;;10.17;91.69;97587.34;1700596;74;24437;-77
2020/12/28 02:45:55;;;;;;;6.23;5.46;;;5.60;99.90;;;10.38;91.59;97595.14;1697473;74;24514;-77
2020/12/28 02:48:30;;;;;;;6.50;5.06;;;5.60;99.90;;;10.44;91.41;97593.59;1706576;74;24524;-75
2020/12/28 02:51:04;;;;;;;5.99;5.28;;;5.60;99.90;;;10.36;91.33;97600.85;1698266;74;24490;-75
2020/12/28 02:53:39;;;;;;;6.91;6.20;;;5.60;99.90;;;10.48;91.14;97598.19;1699930;74;24426;-76
2020/12/28 02:56:13;;;;;;;6.05;5.31;;;5.60;99.90;;;10.36;91.03;97596.95;1707177;74;24370;-76
2020/12/28 02:58:49;;;;;;;5.10;4.60;;;5.60;99.90;;;10.39;90.89;97596.82;1701353;74;24504;-76
2020/12/28 03:01:23;;;;;;;8.70;5.50;;;5.60;99.90;;;10.31;90.30;97594.13;1708252;74;24369;-75
2020/12/28 03:03:57;;;;;;;7.64;5.73;;;5.60;99.90;;;10.45;91.24;97587.46;1699802;74;24846;-76
2020/12/28 03:08:52;;;;;;;5.56;4.86;;;5.60;99.90;;;10.71;90.44;97598.09;1731743;72;25302;-77
2020/12/28 03:11:26;;;;;;;5.90;5.30;;;5.60;99.90;;;10.21;90.68;97600.15;1693647;75;24999;-76
2020/12/28 03:14:00;;;;;;;6.56;5.26;;;5.60;99.90;;;10.35;91.15;97606.94;1702514;75;24539;-76
2020/12/28 03:16:34;;;;;;;6.86;4.71;;;5.60;99.90;;;10.42;90.93;97611.00;1697054;75;24457;-76
2020/12/28 03:18:57;;;;;;;5.86;4.19;;;5.60;99.90;;;10.34;90.64;97610.45;1679041;74;24366;-77
2020/12/28 03:21:31;;;;;;;6.66;5.33;;;5.50;99.90;;;10.16;90.47;97615.08;1698340;73;24429;-75
2020/12/28 03:24:07;;;;;;;6.79;5.95;;;5.60;99.90;;;10.43;91.38;97620.48;1696257;75;24971;-75
2020/12/28 03:26:40;;;;;;;6.87;6.06;;;5.60;99.90;;;10.56;90.80;97611.73;1693134;75;24420;-75
2020/12/28 03:29:14;;;;;;;6.62;4.92;;;5.60;99.90;;;10.46;89.76;97608.66;1697989;73;24356;-75
2020/12/28 03:31:48;;;;;;;8.29;6.13;;;5.50;99.90;;;10.27;89.65;97614.23;1699349;75;24441;-76
2020/12/28 03:34:22;;;;;;;8.29;5.94;;;5.50;99.90;;;10.40;89.61;97615.41;1697526;74;24886;-75
2020/12/28 03:36:57;;;;;;;7.90;6.39;;;5.50;99.90;;;10.23;89.87;97607.44;1702713;75;24537;-76
2020/12/28 03:39:31;;;;;;;9.86;7.44;;;5.50;99.90;;;10.23;89.68;97610.48;1698967;75;24424;-76
2020/12/28 03:42:05;;;;;;;10.69;7.31;;;5.50;99.90;;;10.19;90.09;97608.48;1690726;75;24378;-75
2020/12/28 03:47:07;;;;;;;9.57;7.13;;;5.40;99.90;;;10.09;90.28;97612.78;1750435;72;25227;-76
2020/12/28 03:49:41;;;;;;;9.15;7.08;;;5.40;99.90;;;10.14;90.61;97611.72;1723359;73;24522;-75
2020/12/28 03:52:16;;;;;;;8.39;6.50;;;5.40;99.90;;;10.27;90.82;97607.73;1719807;73;24362;-75
2020/12/28 03:54:52;;;;;;;8.59;6.76;;;5.40;99.90;;;10.37;90.24;97619.88;1721299;73;24371;-76
2020/12/28 03:57:22;;;;;;;7.90;6.96;;;5.40;99.90;;;10.18;89.04;97619.77;1669447;73;24513;-75
2020/12/28 03:59:56;;;;;;;7.93;6.94;;;5.40;99.90;;;10.28;89.68;97626.31;1730013;73;24503;-75
2020/12/28 04:02:14;;;;;;;7.91;6.64;;;5.30;99.90;;;10.40;89.43;97624.98;1706538;73;24405;-77
2020/12/28 04:04:48;;;;;;;7.95;6.83;;;5.30;99.90;;;10.19;87.98;97625.39;1725846;73;24613;-76
2020/12/28 04:07:22;;;;;;;9.95;7.17;;;5.30;99.90;;;10.01;88.33;97621.30;1719174;73;24441;-76
2020/12/28 04:09:46;;;;;;;8.00;7.22;;;5.10;99.90;;;9.92;89.05;97614.72;1725511;73;24438;-75
2020/12/28 04:12:22;;;;;;;5.07;3.94;;;5.00;99.90;;;9.72;89.51;97619.81;1717222;73;24454;-75
2020/12/28 04:14:41;;;;;;;7.03;5.43;;;4.80;99.90;;;9.27;88.74;97618.06;1723609;73;24887;-75
2020/12/28 04:16:58;;;;;;;8.29;5.99;;;4.70;99.90;;;9.26;88.57;97613.78;1717795;73;24442;-76
2020/12/28 04:19:14;;;;;;;7.38;5.90;;;4.60;99.90;;;9.17;88.28;97615.80;1716672;73;24431;-76
2020/12/28 04:21:30;;;;;;;9.49;5.94;;;4.50;99.90;;;9.18;88.56;97623.14;1718761;73;24429;-75
2020/12/28 04:23:46;;;;;;;8.84;5.67;;;4.50;99.90;;;9.09;88.58;97629.94;1721733;73;24435;-76
2020/12/28 04:26:03;;;;;;;7.80;5.57;;;4.40;99.90;;;9.08;88.30;97629.55;1716546;73;24865;-75
2020/12/28 04:28:21;;;;;;;8.26;6.59;;;4.30;99.90;;;9.15;88.42;97634.94;1720396;73;24846;-76
2020/12/28 04:30:37;;;;;;;7.21;5.53;;;4.30;99.90;;;9.22;89.32;97636.40;1718582;73;24877;-76
2020/12/28 04:32:56;;;;;;;10.10;5.81;;;4.20;99.90;;;9.00;87.21;97632.86;1717512;73;24584;-76
2020/12/28 04:35:12;;;;;;;8.77;6.40;;;4.10;99.90;;;8.95;86.57;97635.62;1719820;73;24934;-76
2020/12/28 04:37:28;;;;;;;9.15;6.11;;;4.00;99.90;;;8.93;86.79;97630.92;1718940;73;24939;-76
2020/12/28 04:39:44;;;;;;;9.53;6.00;;;4.00;99.90;;;8.79;86.00;97627.09;1723901;73;24475;-76
2020/12/28 04:42:00;;;;;;;6.76;3.78;;;3.90;99.90;;;8.82;86.82;97624.42;1717147;75;24444;-76
2020/12/28 04:44:18;;;;;;;4.16;3.36;;;3.90;99.90;;;8.52;87.07;97617.67;1718650;73;24868;-77
2020/12/28 04:46:37;;;;;;;7.60;5.72;;;3.80;99.90;;;8.52;88.04;97613.78;1718229;73;24920;-75
2020/12/28 04:48:55;;;;;;;8.10;4.86;;;3.90;99.90;;;8.73;88.53;97616.94;1725267;73;24501;-75
2020/12/28 04:51:11;;;;;;;6.80;5.12;;;3.80;99.90;;;8.59;87.82;97610.06;1716693;73;24452;-77
2020/12/28 04:53:30;;;;;;;8.04;5.72;;;3.80;99.90;;;8.70;88.22;97610.55;1717094;73;24481;-76
2020/12/28 04:55:46;;;;;;;7.92;6.12;;;3.80;99.90;;;8.76;87.77;97612.94;1717092;73;24924;-75
2020/12/28 04:58:02;;;;;;;8.33;5.66;;;3.70;99.90;;;8.86;88.60;97609.14;1725423;73;24428;-74
2020/12/28 05:00:18;;;;;;;12.27;6.70;;;3.70;99.90;;;8.54;87.15;97613.26;1733228;73;24478;-74
2020/12/28 05:02:35;;;;;;;11.60;6.93;;;3.70;99.90;;;8.76;87.62;97623.31;1718123;73;24910;-75
2020/12/28 05:04:52;;;;;;;8.65;5.34;;;3.70;99.90;;;8.74;87.82;97622.54;1717153;73;24929;-74
2020/12/28 05:07:09;;;;;;;7.07;6.02;;;3.60;99.90;;;8.60;87.29;97627.34;1720713;73;24464;-75
2020/12/28 05:09:26;;;;;;;8.29;6.40;;;3.60;99.90;;;8.67;87.00;97626.22;1715986;73;24936;-76
2020/12/28 05:11:44;;;;;;;7.93;6.03;;;3.60;99.90;;;8.64;86.80;97623.73;1723041;73;24935;-76
2020/12/28 05:14:01;;;;;;;7.71;6.45;;;3.60;99.90;;;8.63;86.75;97618.16;1725506;73;24507;-75
2020/12/28 05:16:19;;;;;;;9.35;6.27;;;3.50;99.90;;;8.65;87.06;97619.80;1719551;73;24559;-76
2020/12/28 05:18:36;;;;;;;8.84;5.98;;;3.50;99.90;;;8.56;86.74;97610.17;1717516;73;24531;-76
2020/12/28 05:20:53;;;;;;;7.83;6.32;;;3.40;99.90;;;8.48;86.63;97610.44;1716880;73;24438;-75
2020/12/28 05:23:11;;;;;;;9.35;6.30;;;3.30;99.90;;;8.48;87.13;97613.47;1717159;73;24491;-76
2020/12/28 05:25:29;;;;;;;9.32;6.65;;;3.30;99.90;;;8.39;86.32;97612.04;1716230;73;24926;-75
2020/12/28 05:27:49;;;;;;;7.81;6.36;;;3.20;99.90;;;8.37;86.73;97612.97;1716243;73;24521;-77
2020/12/28 05:30:09;;;;;;;7.80;6.87;;;3.10;99.90;;;8.35;86.71;97616.05;1723143;73;24552;-75
2020/12/28 05:32:27;;;;;;;8.02;6.76;;;3.10;99.90;;;8.33;85.58;97626.47;1721709;73;24534;-75
2020/12/28 05:34:48;;;;;;;10.48;6.76;;;3.00;99.90;;;8.49;85.71;97622.92;1716053;73;24445;-76
2020/12/28 05:37:05;;;;;;;8.71;6.61;;;3.10;99.90;;;8.45;84.71;97622.20;1719205;73;24981;-76
2020/12/28 05:39:25;;;;;;;8.17;6.18;;;3.20;99.90;;;8.57;84.98;97628.71;1720589;73;24432;-74
2020/12/28 05:41:43;;;;;;;10.70;7.46;;;3.20;99.90;;;8.71;85.40;97618.75;1719942;73;25033;-76
2020/12/28 05:44:10;;;;;;;10.53;7.50;;;3.30;99.90;;;8.94;85.56;97627.45;1719129;73;24444;-76
2020/12/28 05:46:27;;;;;;;8.89;7.92;;;3.50;99.90;;;9.16;85.67;97630.98;1724062;73;24555;-75
2020/12/28 05:48:47;;;;;;;11.36;7.67;;;3.60;99.90;;;9.40;85.63;97632.30;1721684;73;24870;-75
2020/12/28 05:51:03;;;;;;;11.56;7.94;;;3.70;99.90;;;9.58;86.16;97629.87;1718163;73;24445;-74
2020/12/28 05:53:20;;;;;;;11.06;8.23;;;3.80;99.90;;;9.60;86.10;97631.97;1718187;73;24980;-77
2020/12/28 05:55:37;;;;;;;9.92;8.01;;;3.90;99.90;;;9.70;86.47;97635.08;1718278;73;24457;-76
2020/12/28 05:57:57;;;;;;;11.89;8.38;;;4.00;99.90;;;9.70;85.64;97634.63;1715970;73;24440;-74
2020/12/28 06:00:13;;;;;;;9.86;8.16;;;4.10;99.90;;;9.73;86.24;97627.16;1716372;73;24444;-75
2020/12/28 06:02:34;;;;;;;10.65;8.96;;;4.10;99.90;;;9.68;85.96;97623.44;1716136;73;24561;-74
2020/12/28 06:04:53;;;;;;;10.70;8.40;;;4.20;99.90;;;9.55;85.89;97617.47;1715988;73;24969;-74
2020/12/28 06:07:11;;;;;;;11.22;8.05;;;4.20;99.90;;;9.55;85.97;97615.70;1717986;73;24962;-74
2020/12/28 06:09:28;;;;;;;13.83;8.73;;;4.20;99.90;;;9.27;87.33;97620.21;1720546;73;24435;-76
2020/12/28 06:11:47;;;;;;;11.54;8.40;;;4.20;99.90;;;9.42;88.10;97617.05;1715986;73;24414;-76
2020/12/28 06:14:14;;;;;;;13.16;8.75;;;4.20;99.90;;;9.32;88.29;97617.01;1685346;75;24859;-75
2020/12/28 06:16:33;;;;;;;12.85;8.89;;;4.20;99.90;;;9.32;88.59;97622.64;1719447;73;24973;-75
2020/12/28 06:18:57;;;;;;;12.33;8.34;;;4.20;99.90;;;9.48;88.76;97622.05;1716334;73;24514;-74
2020/12/28 06:21:16;;;;;;;12.69;8.50;;;4.20;99.90;;;9.42;88.87;97626.61;1722731;73;24513;-76
2020/12/28 06:23:32;;;;;;;11.63;8.30;;;4.20;99.90;;;9.49;88.87;97628.06;1716014;73;24444;-76
2020/12/28 06:25:55;;;;;;;11.82;8.91;;;4.30;99.90;;;9.58;88.81;97636.84;1719146;73;24503;-76
2020/12/28 06:28:24;;;;;;;9.21;7.16;;;4.30;99.90;;;9.55;88.81;97634.36;1717647;73;24435;-74
2020/12/28 06:30:40;;;;;;;10.41;7.28;;;4.30;99.90;;;9.32;89.15;97648.16;1716365;73;24976;-75
2020/12/28 06:33:07;;;;;;;9.19;7.71;;;4.30;99.90;;;9.39;89.24;97656.59;1715772;73;24465;-74
2020/12/28 06:35:29;;;;;;;9.59;7.88;;;4.40;99.90;;;9.55;89.73;97655.14;1725149;73;25033;-74
2020/12/28 06:37:50;;;;;;;10.32;7.24;;;4.40;99.90;;;9.81;89.45;97638.12;1715926;73;24478;-76
2020/12/28 06:40:10;;;;;;;11.54;7.74;;;4.40;99.90;;;9.67;88.40;97646.44;1716227;73;24436;-77
2020/12/28 06:42:26;;;;;;;10.28;7.11;;;4.40;99.90;;;9.74;88.92;97645.73;1725449;73;26089;-74
2020/12/28 06:44:45;;;;;;;10.05;7.57;;;4.40;99.90;;;9.89;88.54;97649.93;1726136;73;24498;-75
2020/12/28 06:47:04;;;;;;;9.66;7.05;;;4.40;99.90;;;10.03;88.09;97644.19;1715990;73;24509;-75
2020/12/28 06:49:22;;;;;;;8.20;7.26;;;4.40;99.90;;;9.85;86.91;97643.14;1710907;74;24448;-75
2020/12/28 06:51:39;;;;;;;9.76;7.83;;;4.40;99.90;;;9.59;86.87;97645.87;1705679;74;24433;-75
2020/12/28 06:53:56;;;;;;;11.85;8.41;;;4.30;99.90;;;9.75;87.36;97647.00;1709127;74;24513;-77
2020/12/28 06:56:16;;;;;;;9.97;8.54;;;4.30;99.90;;;9.77;87.50;97650.37;1708514;74;24426;-75
2020/12/28 06:58:34;;;;;;;11.17;9.45;;;4.30;99.90;;;9.77;86.89;97655.56;1708791;74;24424;-75
2020/12/28 07:00:58;;;;;;;11.94;9.28;;;4.30;99.90;;;9.55;87.11;97661.16;1705321;74;24942;-77
2020/12/28 07:03:20;;;;;;;12.81;9.49;;;4.20;99.90;;;9.46;87.10;97659.34;1708084;74;24576;-75
2020/12/28 07:05:37;;;;;;;11.72;9.54;;;4.20;99.90;;;9.53;87.22;97657.76;1712169;74;24538;-75
2020/12/28 07:07:54;;;;;;;14.65;10.70;;;4.10;99.90;;;9.48;87.16;97661.00;1711380;74;24539;-75
2020/12/28 07:10:16;;;;;;;14.17;9.91;;;4.00;99.90;;;9.27;86.76;97663.05;1703207;74;24466;-74
2020/12/28 07:12:33;;;;;;;13.48;10.23;;;3.80;99.90;;;9.04;86.19;97666.44;1709682;74;24433;-76
2020/12/28 07:14:53;;;;;;;14.63;10.28;;;3.70;99.90;;;8.87;86.30;97671.79;1705971;74;25060;-74
2020/12/28 07:17:11;;;;;;;10.87;8.26;;;3.50;99.90;;;8.71;86.42;97677.11;1710864;74;24428;-75
2020/12/28 07:19:28;;;;;;;10.68;6.22;;;3.40;99.90;;;8.66;86.25;97680.30;1704439;74;24940;-75
2020/12/28 07:21:46;;;;;;;12.06;6.56;;;3.40;99.90;;;8.85;85.75;97686.11;1708188;74;24510;-74
2020/12/28 07:24:03;;;;;;;9.52;5.98;;;3.50;99.90;;;9.03;86.21;97688.55;1705386;74;24517;-74
2020/12/28 07:26:21;;;;;;;9.20;5.92;;;3.60;99.90;;;9.35;86.52;97679.65;1710043;74;24954;-75
2020/12/28 07:28:40;;;;;;;7.12;4.85;;;3.70;99.90;;;9.44;85.97;97675.45;1708931;74;24449;-75
2020/12/28 07:31:01;;;;;;;7.54;5.66;;;3.90;99.90;;;9.17;87.03;97683.73;1705209;74;24522;-75
2020/12/28 07:33:18;;;;;;;6.72;4.47;;;4.00;99.90;;;9.28;88.62;97674.30;1717327;74;24512;-75
2020/12/28 07:35:37;;;;;;;7.41;5.10;;;4.10;99.90;;;9.12;89.61;97678.70;1709186;74;24893;-75
2020/12/28 07:37:54;;;;;;;6.69;5.40;;;4.20;99.90;;;9.37;89.67;97676.55;1672898;75;24821;-76
2020/12/28 07:40:11;;;;;;;6.02;5.14;;;4.20;99.90;;;9.42;89.99;97683.27;1705505;74;24512;-75
2020/12/28 07:42:28;;;;;;;5.24;4.53;;;4.30;99.90;;;9.43;89.47;97686.72;1705116;74;24918;-74
2020/12/28 07:44:46;;;;;;;4.65;4.14;;;4.30;99.90;;;9.39;90.22;97691.64;1704902;74;24851;-75
2020/12/28 07:47:09;;;;;;;5.48;4.12;;;4.40;99.90;;;9.26;90.84;97687.33;1709262;74;24508;-76
2020/12/28 07:49:29;;;;;;;6.32;4.71;;;4.40;99.90;;;9.39;90.78;97689.87;1713809;73;24501;-75
2020/12/28 07:51:51;;;;;;;5.43;4.55;;;4.40;99.90;;;9.50;90.90;97687.73;1711211;74;24528;-76
2020/12/28 07:54:19;;;;;;;6.90;4.77;;;4.50;99.90;;;9.55;90.20;97684.53;1709680;74;24620;-75
2020/12/28 07:56:44;;;;;;;6.53;4.64;;;4.50;99.90;;;9.55;89.92;97689.73;1705225;74;24449;-75
2020/12/28 07:59:12;;;;;;;6.26;4.21;;;4.50;99.90;;;9.49;90.04;97683.90;1704719;74;24925;-74
2020/12/28 08:01:32;;;;;;;7.36;4.45;;;4.50;99.90;;;9.40;90.80;97681.64;1715807;74;24457;-74
2020/12/28 08:03:54;;;;;;;4.52;3.34;;;4.60;99.90;;;9.61;90.26;97678.28;1708031;74;24512;-76
2020/12/28 08:06:17;;;;;;;6.31;4.46;;;4.50;99.90;;;9.39;89.90;97687.75;1673893;75;24922;-76
2020/12/28 08:08:34;;;;;;;4.80;4.25;;;4.50;99.90;;;9.46;89.72;97681.41;1704855;74;24453;-75
2020/12/28 08:10:55;;;;;;;4.84;4.05;;;4.40;99.90;;;9.27;89.37;97683.82;1709423;74;25019;-75
2020/12/28 08:13:11;;;;;;;6.14;4.14;;;4.40;99.90;;;9.26;89.03;97682.58;1714343;74;24464;-75
2020/12/28 08:15:33;;;;;;;5.15;4.27;;;4.40;99.90;;;9.38;88.53;97687.33;1706008;74;24908;-76
2020/12/28 08:17:50;;;;;;;5.42;4.60;;;4.30;99.90;;;9.37;87.69;97686.94;1706621;74;24429;-74
2020/12/28 08:20:15;;;;;;;6.45;4.61;;;4.30;99.90;;;9.34;88.39;97690.51;1709875;74;24455;-75
2020/12/28 08:22:32;;;;;;;5.80;4.59;;;4.30;99.90;;;9.15;88.37;97683.78;1712855;74;24521;-78
2020/12/28 08:24:52;;;;;;;8.25;4.07;;;4.30;99.90;;;9.16;89.05;97689.39;1705999;74;24540;-74
2020/12/28 08:27:08;;;;;;;6.36;4.37;;;4.30;99.90;;;9.29;88.62;97691.55;1705703;74;24535;-74
2020/12/28 08:29:27;;;;;;;4.62;3.89;;;4.30;99.90;;;9.18;88.60;97701.84;1705811;74;24586;-74
2020/12/28 08:31:43;;;;;;;7.42;4.45;;;4.30;99.90;;;9.03;88.50;97701.08;1706220;74;24437;-75
2020/12/28 08:34:05;;;;;;;6.21;4.79;;;4.30;99.90;;;9.29;88.20;97703.23;1706916;74;24513;-73
2020/12/28 08:36:27;;;;;;;5.79;4.08;;;4.20;99.90;;;9.33;87.42;97705.67;1704823;75;24848;-74
2020/12/28 08:38:43;;;;;;;4.69;3.84;;;4.20;99.90;;;9.32;86.97;97701.39;1705219;74;24449;-76
2020/12/28 08:41:00;;;;;;;5.67;4.50;;;4.20;99.90;;;9.20;87.08;97703.95;1721666;74;24874;-75
2020/12/28 08:43:18;;;;;;;5.60;3.90;;;4.20;99.90;;;9.28;86.64;97707.57;1672280;75;24455;-75
2020/12/28 08:45:34;;;;;;;6.07;4.30;;;4.10;99.90;;;9.26;86.45;97703.34;1716359;74;24472;-74
2020/12/28 08:47:56;;;;;;;4.55;4.03;;;4.20;99.90;;;9.35;86.71;97698.69;1715282;74;24449;-75
2020/12/28 08:50:20;;;;;;;5.45;4.30;;;4.20;99.90;;;9.48;86.33;97694.77;1675414;75;25055;-75
2020/12/28 08:52:39;;;;;;;4.52;3.88;;;4.20;99.90;;;9.49;86.13;97692.55;1714889;74;24448;-77
2020/12/28 08:54:59;;;;;;;5.00;4.06;;;4.10;99.90;;;9.43;85.69;97703.59;1712855;73;24533;-75
2020/12/28 08:57:23;;;;;;;5.00;3.81;;;4.10;99.90;;;9.11;85.87;97705.56;1714051;74;24857;-76
2020/12/28 08:59:39;;;;;;;5.30;4.46;;;4.10;99.90;;;9.09;85.78;97712.98;1713578;74;24453;-74
2020/12/28 09:01:56;;;;;;;5.75;4.18;;;4.10;99.90;;;9.28;86.43;97708.87;1724167;73;24941;-76
2020/12/28 09:04:12;;;;;;;5.20;4.23;;;4.10;99.90;;;9.35;85.77;97713.41;1717449;74;24972;-75
2020/12/28 09:06:29;;;;;;;5.81;4.52;;;4.10;99.90;;;9.03;86.73;97719.25;1721070;74;24463;-76
2020/12/28 09:08:45;;;;;;;6.33;4.27;;;4.20;99.90;;;9.34;86.98;97728.16;1716720;74;24460;-75
2020/12/28 09:11:01;;;;;;;4.99;4.04;;;4.20;99.90;;;9.46;86.59;97724.27;1715686;73;24366;-75
2020/12/28 09:13:19;;;;;;;4.70;3.90;;;4.20;99.90;;;9.48;86.16;97727.22;1720747;74;24429;-76
2020/12/28 09:15:36;;;;;;;6.21;4.20;;;4.30;99.90;;;9.35;86.38;97724.65;1717951;74;24418;-75
2020/12/28 09:17:55;;;;;;;5.60;3.58;;;4.30;99.90;;;9.57;86.51;97726.89;1719566;74;25151;-76
2020/12/28 09:20:14;;;;;;;6.25;4.19;;;4.30;99.90;;;9.74;86.20;97727.58;1720342;74;24500;-74
2020/12/28 09:22:30;;;;;;;5.42;4.55;;;4.40;99.90;;;9.69;85.37;97729.05;1716762;73;24923;-75
2020/12/28 09:24:46;;;;;;;5.32;4.82;;;4.40;99.90;;;9.62;85.66;97731.48;1719023;74;24870;-74
2020/12/28 09:27:02;;;;;;;5.32;4.55;;;4.50;99.90;;;9.74;86.06;97733.62;1718067;73;24653;-76
2020/12/28 09:29:19;;;;;;;5.24;4.73;;;4.50;99.90;;;9.75;85.22;97733.19;1723595;73;24518;-74
2020/12/28 09:31:35;;;;;;;6.86;5.31;;;4.50;99.90;;;9.79;85.39;97736.05;1720623;73;24582;-76
2020/12/28 09:33:52;;;;;;;5.47;4.33;;;4.50;99.90;;;9.78;85.64;97733.93;1723801;73;24497;-77
2020/12/28 09:36:09;;;;;;;6.16;4.66;;;4.60;99.90;;;9.77;85.70;97741.78;1713925;74;24373;-76
2020/12/28 09:38:25;;;;;;;4.66;4.19;;;4.60;99.90;;;9.86;85.30;97741.00;1716505;74;25722;-75
2020/12/28 09:40:42;;;;;;;4.78;4.33;;;4.70;99.90;;;9.90;85.44;97739.97;1713635;74;24932;-77
2020/12/28 09:43:06;;;;;;;6.11;3.76;;;4.70;99.90;;;10.03;85.41;97739.92;1722491;74;24839;-76
2020/12/28 09:45:37;;;;;;;5.78;4.10;;;4.80;99.90;;;9.73;87.34;97741.03;1712637;74;24493;-76
2020/12/28 09:47:55;;;;;;;5.27;3.70;;;4.90;99.90;;;10.08;86.48;97735.45;1721293;74;24467;-79
2020/12/28 09:50:11;;;;;;;7.48;3.96;;;4.90;99.90;;;10.12;86.98;97743.51;1715497;74;24511;-76
2020/12/28 09:52:31;;;;;;;5.99;3.76;;;5.10;99.90;;;10.21;87.17;97743.63;1711410;74;24432;-74
2020/12/28 09:54:47;;;;;;;4.54;3.20;;;5.20;99.90;;;10.28;87.61;97747.67;1707566;74;24483;-75
2020/12/28 09:57:06;;;;;;;4.95;3.20;;;5.30;99.90;;;10.40;87.24;97737.66;1708468;74;25238;-75
2020/12/28 09:59:24;;;;;;;4.52;3.12;;;5.60;99.90;;;10.34;87.10;97744.84;1708001;74;24921;-75
2020/12/28 10:01:45;;;;;;;4.40;2.96;;;5.80;99.90;;;10.34;88.93;97749.59;1708682;74;24536;-74
2020/12/28 10:04:04;;;;;;;3.94;3.06;;;6.10;99.90;;;10.47;88.57;97744.33;1710991;74;24440;-74